Time;durP1;ratioP1;P1;durP2;ratioP2;P2;SDS_P1;SDS_P2;PMS_P1;PMS_P2;Temp;Humidity;BMP_temperature;BMP_pressure;BME280_temperature;BME280_humidity;BME280_pressure;Samples;Min_cycle;Max_cycle;Signal;HPM_P1;HPM_P2
2022/08/12 00:44:13;;;;;;;7.88;2.90;;;;;;;;;;5108957;27;20028;-61
2022/08/12 00:47:00;;;;;;;4.10;2.20;;;;;;;;;;5110670;28;20023;-72
2022/08/12 00:49:48;;;;;;;5.80;2.72;;;;;;;;;;5107150;27;20032;-73
2022/08/12 00:52:34;;;;;;;4.30;2.40;;;;;;;;;;5117893;27;20106;-74
2022/08/12 00:55:20;;;;;;;4.13;2.45;;;;;;;;;;5102495;27;20054;-74
2022/08/12 00:58:07;;;;;;;3.60;2.25;;;;;;;;;;5111441;27;20027;-73
2022/08/12 01:00:54;;;;;;;3.17;2.42;;;;;;;;;;5104938;27;20059;-74
2022/08/12 01:12:52;;;;;;;5.13;2.15;;;;;;;;;;5114771;27;20031;-62
2022/08/12 01:15:38;;;;;;;2.67;2.25;;;;;;;;;;5111239;27;20114;-62
2022/08/12 01:18:26;;;;;;;3.88;2.28;;;;;;;;;;5106865;28;20023;-62
2022/08/12 01:21:15;;;;;;;5.55;2.65;;;;;;;;;;5109730;27;20035;-71
2022/08/12 01:24:39;;;;;;;4.43;2.55;;;;;;;;;;5112929;27;20312;-66
2022/08/12 01:27:26;;;;;;;4.00;2.40;;;;;;;;;;5014168;28;20552;-65
2022/08/12 01:30:13;;;;;;;4.43;2.40;;;;;;;;;;4996950;28;20038;-66
2022/08/12 01:33:01;;;;;;;3.65;2.50;;;;;;;;;;5095952;28;20420;-65
2022/08/12 01:35:49;;;;;;;5.88;2.42;;;;;;;;;;5109668;28;20076;-66
2022/08/12 01:38:35;;;;;;;2.50;2.15;;;;;;;;;;5110288;27;20028;-69
2022/08/12 01:41:22;;;;;;;3.38;2.20;;;;;;;;;;5106539;27;20039;-64
2022/08/12 01:44:09;;;;;;;4.63;2.88;;;;;;;;;;5113134;27;20034;-65
2022/08/12 01:47:13;;;;;;;7.65;2.42;;;;;;;;;;5108855;27;20126;-65
2022/08/12 01:50:03;;;;;;;5.43;2.35;;;;;;;;;;5106238;28;20513;-68
2022/08/12 01:52:48;;;;;;;;;;;;;;;;;;5109126;27;20122;-67
2022/08/12 01:55:36;;;;;;;4.05;2.60;;;;;;;;;;5109560;27;20000;-66
2022/08/12 01:58:21;;;;;;;3.78;2.45;;;;;;;;;;5113520;27;20073;-70
2022/08/12 02:01:10;;;;;;;4.20;2.50;;;;;;;;;;5105654;28;20020;-75
2022/08/12 02:13:33;;;;;;;2.28;1.90;;;;;;;;;;5112133;27;20432;-74
2022/08/12 02:16:26;;;;;;;4.07;2.40;;;;;;;;;;5102406;28;20489;-70
2022/08/12 02:19:26;;;;;;;4.85;2.75;;;;;;;;;;5106223;28;20402;-66
2022/08/12 02:22:20;;;;;;;3.72;2.47;;;;;;;;;;5112369;28;20043;-66
2022/08/12 02:25:09;;;;;;;7.90;3.35;;;;;;;;;;5096087;28;20043;-65
2022/08/12 02:27:55;;;;;;;6.03;2.83;;;;;;;;;;5110342;28;20032;-66
2022/08/12 02:30:41;;;;;;;5.97;3.45;;;;;;;;;;5113534;28;20542;-64
2022/08/12 02:33:27;;;;;;;7.20;2.83;;;;;;;;;;5111133;28;20365;-63
2022/08/12 02:36:15;;;;;;;6.07;2.50;;;;;;;;;;5111001;28;20062;-71
2022/08/12 02:39:02;;;;;;;2.50;1.98;;;;;;;;;;5106810;28;20054;-65
2022/08/12 02:41:48;;;;;;;4.28;2.42;;;;;;;;;;5106823;28;20024;-66
2022/08/12 02:44:36;;;;;;;2.72;2.40;;;;;;;;;;5113576;28;20063;-65
2022/08/12 02:47:22;;;;;;;4.80;2.58;;;;;;;;;;5106411;28;20035;-66
2022/08/12 02:50:09;;;;;;;7.35;2.42;;;;;;;;;;5106353;28;20100;-66
2022/08/12 02:52:55;;;;;;;7.32;2.72;;;;;;;;;;5110526;28;20547;-66
2022/08/12 02:55:44;;;;;;;3.67;2.22;;;;;;;;;;5110887;28;20031;-65
2022/08/12 02:58:30;;;;;;;3.22;2.28;;;;;;;;;;5107943;28;20507;-68
2022/08/12 03:01:17;;;;;;;5.10;2.47;;;;;;;;;;5105282;28;20123;-67
2022/08/12 03:04:06;;;;;;;4.00;2.42;;;;;;;;;;5103884;28;20028;-67
2022/08/12 03:07:13;;;;;;;4.97;2.50;;;;;;;;;;5104345;28;20141;-66
2022/08/12 03:10:08;;;;;;;4.20;2.60;;;;;;;;;;5098782;28;20028;-67
2022/08/12 03:12:56;;;;;;;5.55;2.90;;;;;;;;;;5102859;28;20071;-62
2022/08/12 03:15:42;;;;;;;4.60;2.67;;;;;;;;;;5103672;28;20043;-67
2022/08/12 03:18:30;;;;;;;6.18;2.55;;;;;;;;;;5108266;28;20024;-67
2022/08/12 03:21:16;;;;;;;5.15;2.38;;;;;;;;;;5111043;27;20045;-67
2022/08/12 03:24:03;;;;;;;3.55;2.53;;;;;;;;;;5105922;28;20101;-67
2022/08/12 03:26:50;;;;;;;4.35;2.58;;;;;;;;;;5115909;27;20023;-66
2022/08/12 03:29:37;;;;;;;3.97;2.72;;;;;;;;;;5118071;27;20369;-62
2022/08/12 03:32:23;;;;;;;4.93;2.42;;;;;;;;;;5110991;27;20036;-71
2022/08/12 03:35:11;;;;;;;3.60;2.30;;;;;;;;;;5110940;28;20061;-71
2022/08/12 03:37:59;;;;;;;3.13;2.35;;;;;;;;;;5115507;27;20067;-70
2022/08/12 04:02:42;;;;;;;4.80;2.63;;;;;;;;;;5105168;28;20066;-63
2022/08/12 04:05:28;;;;;;;7.18;2.50;;;;;;;;;;5113720;27;20031;-66
2022/08/12 04:08:15;;;;;;;3.88;2.60;;;;;;;;;;5110417;27;20434;-62
2022/08/12 04:14:06;;;;;;;3.70;2.50;;;;;;;;;;5113138;27;20028;-62
2022/08/12 04:16:52;;;;;;;5.57;2.70;;;;;;;;;;5110434;27;20464;-62
2022/08/12 04:19:38;;;;;;;5.00;2.92;;;;;;;;;;5114423;27;20027;-63
2022/08/12 04:22:25;;;;;;;4.10;2.65;;;;;;;;;;5114547;27;20449;-63
2022/08/12 04:25:11;;;;;;;3.55;2.78;;;;;;;;;;5104652;28;20039;-74
2022/08/12 04:27:57;;;;;;;4.88;3.35;;;;;;;;;;5112330;27;20034;-70
2022/08/12 04:30:43;;;;;;;6.60;2.88;;;;;;;;;;5125758;27;20031;-70
2022/08/12 04:33:31;;;;;;;5.57;2.83;;;;;;;;;;5115437;27;20111;-70
2022/08/12 04:36:16;;;;;;;5.80;2.70;;;;;;;;;;5112329;28;20435;-71
2022/08/12 04:39:03;;;;;;;4.38;2.85;;;;;;;;;;5100237;28;20043;-71
2022/08/12 04:41:49;;;;;;;5.68;3.17;;;;;;;;;;5115020;27;20279;-71
2022/08/12 04:44:34;;;;;;;3.97;2.88;;;;;;;;;;5116507;27;20092;-67
2022/08/12 04:47:20;;;;;;;6.63;3.05;;;;;;;;;;5114988;27;20055;-62
2022/08/12 04:50:06;;;;;;;7.63;3.00;;;;;;;;;;5107931;27;20390;-62
2022/08/12 04:52:52;;;;;;;6.50;3.15;;;;;;;;;;5101121;28;20036;-62
2022/08/12 04:55:38;;;;;;;5.63;3.15;;;;;;;;;;5094773;27;20377;-63
2022/08/12 04:58:24;;;;;;;4.90;2.97;;;;;;;;;;5104584;28;20477;-62
2022/08/12 05:01:11;;;;;;;5.07;2.95;;;;;;;;;;5103481;27;20106;-66
2022/08/12 05:03:57;;;;;;;5.43;2.83;;;;;;;;;;5116399;27;20039;-70
2022/08/12 05:06:43;;;;;;;4.40;2.70;;;;;;;;;;5112196;27;20031;-73
2022/08/12 05:09:28;;;;;;;7.35;3.00;;;;;;;;;;5116005;27;20038;-72
2022/08/12 05:12:16;;;;;;;5.43;3.13;;;;;;;;;;5103103;28;20085;-71
2022/08/12 05:15:03;;;;;;;5.85;2.47;;;;;;;;;;5108276;27;20027;-72
2022/08/12 05:17:49;;;;;;;6.28;2.92;;;;;;;;;;5097062;27;20039;-71
2022/08/12 05:20:36;;;;;;;4.57;3.05;;;;;;;;;;5101019;28;20066;-74
2022/08/12 05:23:21;;;;;;;7.90;3.10;;;;;;;;;;5110789;27;20073;-65
2022/08/12 05:26:07;;;;;;;6.30;3.60;;;;;;;;;;5112198;28;20046;-66
2022/08/12 05:28:53;;;;;;;12.95;3.45;;;;;;;;;;5110337;28;20440;-65
2022/08/12 05:31:39;;;;;;;4.20;2.90;;;;;;;;;;5103634;27;20073;-66
2022/08/12 05:34:27;;;;;;;4.47;3.00;;;;;;;;;;5109929;28;20546;-67
2022/08/12 05:37:13;;;;;;;3.97;2.50;;;;;;;;;;5116977;27;20032;-64
2022/08/12 05:39:59;;;;;;;4.30;2.80;;;;;;;;;;5111137;27;20031;-68
2022/08/12 05:42:45;;;;;;;5.43;3.25;;;;;;;;;;5113908;27;20105;-68
2022/08/12 05:45:31;;;;;;;5.05;3.15;;;;;;;;;;5109669;28;20054;-69
2022/08/12 05:48:16;;;;;;;9.38;3.42;;;;;;;;;;5107088;28;20031;-68
2022/08/12 05:51:02;;;;;;;8.40;3.45;;;;;;;;;;5107169;28;20502;-67
2022/08/12 05:53:48;;;;;;;6.68;3.13;;;;;;;;;;5106661;28;20066;-68
2022/08/12 05:56:34;;;;;;;4.28;2.88;;;;;;;;;;5108383;27;20455;-68
2022/08/12 05:59:20;;;;;;;4.13;2.65;;;;;;;;;;5108403;28;20084;-69
2022/08/12 06:02:08;;;;;;;6.22;2.72;;;;;;;;;;5108737;28;20024;-70
2022/08/12 06:04:56;;;;;;;7.07;2.60;;;;;;;;;;5106568;28;20074;-66
2022/08/12 06:07:45;;;;;;;4.30;2.72;;;;;;;;;;5104341;28;20031;-67
2022/08/12 06:10:31;;;;;;;5.17;2.73;;;;;;;;;;5111513;27;20024;-67
2022/08/12 06:13:17;;;;;;;4.53;2.40;;;;;;;;;;5107167;27;20524;-67
2022/08/12 06:16:03;;;;;;;3.53;2.50;;;;;;;;;;5100334;28;20374;-66
2022/08/12 06:18:49;;;;;;;6.70;2.35;;;;;;;;;;5104686;28;20020;-70
2022/08/12 06:21:36;;;;;;;4.65;2.75;;;;;;;;;;5095879;28;20028;-71
2022/08/12 06:24:24;;;;;;;4.25;2.70;;;;;;;;;;5105647;28;20023;-69
2022/08/12 06:27:10;;;;;;;6.40;2.40;;;;;;;;;;5108981;28;20024;-68
2022/08/12 06:29:57;;;;;;;9.50;3.28;;;;;;;;;;5109659;28;20043;-70
2022/08/12 06:32:43;;;;;;;6.32;2.97;;;;;;;;;;5091133;28;20031;-65
2022/08/12 06:35:29;;;;;;;6.70;2.97;;;;;;;;;;5116228;28;20051;-67
2022/08/12 06:38:19;;;;;;;5.10;2.67;;;;;;;;;;5106212;28;20035;-69
2022/08/12 06:44:19;;;;;;;4.68;2.60;;;;;;;;;;5108782;28;20055;-70
2022/08/12 06:47:04;;;;;;;5.15;2.40;;;;;;;;;;5108510;28;21951;-70
2022/08/12 06:49:51;;;;;;;7.05;3.05;;;;;;;;;;5106588;28;20044;-69
2022/08/12 06:52:36;;;;;;;8.48;3.13;;;;;;;;;;5110382;27;20024;-68
2022/08/12 06:55:24;;;;;;;6.65;2.65;;;;;;;;;;5086608;28;20023;-70
2022/08/12 06:58:10;;;;;;;6.25;3.20;;;;;;;;;;5113545;27;20522;-68
2022/08/12 07:00:57;;;;;;;4.00;2.53;;;;;;;;;;5104326;28;20378;-70
2022/08/12 07:03:42;;;;;;;7.15;2.63;;;;;;;;;;5105348;27;20034;-69
2022/08/12 07:06:28;;;;;;;7.70;2.60;;;;;;;;;;5108179;27;20028;-67
2022/08/12 07:09:13;;;;;;;9.07;2.42;;;;;;;;;;5112920;28;20058;-77
2022/08/12 07:11:59;;;;;;;3.85;2.20;;;;;;;;;;5101006;27;20020;-76
2022/08/12 07:14:50;;;;;;;4.45;2.38;;;;;;;;;;5111637;27;20036;-74
2022/08/12 07:17:35;;;;;;;5.55;2.55;;;;;;;;;;5110551;28;20057;-75
2022/08/12 07:20:21;;;;;;;6.53;2.95;;;;;;;;;;5111738;27;20056;-74
2022/08/12 07:23:07;;;;;;;3.83;2.17;;;;;;;;;;5110525;28;20031;-75
2022/08/12 07:25:53;;;;;;;6.00;2.70;;;;;;;;;;5110029;28;20378;-75
2022/08/12 07:28:42;;;;;;;3.42;2.25;;;;;;;;;;5105242;28;20088;-77
2022/08/12 07:31:33;;;;;;;7.50;2.40;;;;;;;;;;5083901;28;20050;-76
2022/08/12 07:34:19;;;;;;;4.40;1.88;;;;;;;;;;5092688;27;20466;-76
2022/08/12 07:37:04;;;;;;;6.78;2.83;;;;;;;;;;5109362;28;20072;-75
2022/08/12 07:39:50;;;;;;;6.95;2.38;;;;;;;;;;5109936;28;20110;-75
2022/08/12 07:42:36;;;;;;;7.40;2.63;;;;;;;;;;5109176;28;20509;-75
2022/08/12 07:45:23;;;;;;;4.30;2.65;;;;;;;;;;5094489;28;20032;-75
2022/08/12 07:48:08;;;;;;;4.57;2.15;;;;;;;;;;5113179;27;20035;-71
2022/08/12 07:50:54;;;;;;;4.82;2.20;;;;;;;;;;5106463;27;20122;-72
2022/08/12 07:53:40;;;;;;;2.65;2.00;;;;;;;;;;5094799;28;20041;-72
2022/08/12 07:56:26;;;;;;;7.65;2.42;;;;;;;;;;5107132;28;20028;-70
2022/08/12 07:59:12;;;;;;;7.93;2.15;;;;;;;;;;5107168;28;20039;-71
2022/08/12 08:01:59;;;;;;;3.38;1.70;;;;;;;;;;5106724;28;20027;-76
2022/08/12 08:04:59;;;;;;;2.88;1.98;;;;;;;;;;5114037;27;20027;-79
2022/08/12 08:07:45;;;;;;;4.15;2.25;;;;;;;;;;5101829;28;20027;-77
2022/08/12 08:10:30;;;;;;;5.65;2.30;;;;;;;;;;5111166;28;20100;-77
2022/08/12 08:13:16;;;;;;;5.50;2.25;;;;;;;;;;5097035;28;20480;-77
2022/08/12 08:16:04;;;;;;;4.45;2.00;;;;;;;;;;5096405;28;20063;-74
2022/08/12 08:18:52;;;;;;;5.28;2.40;;;;;;;;;;5106526;28;20039;-75
2022/08/12 08:22:00;;;;;;;3.10;2.05;;;;;;;;;;5117363;27;20024;-79
2022/08/12 08:24:56;;;;;;;2.72;1.80;;;;;;;;;;5112053;28;20123;-75
2022/08/12 08:27:44;;;;;;;4.15;1.95;;;;;;;;;;5106409;27;20040;-79
2022/08/12 08:30:30;;;;;;;3.23;2.17;;;;;;;;;;5108935;27;20110;-80
2022/08/12 08:33:16;;;;;;;5.90;2.05;;;;;;;;;;5108811;28;20825;-77
2022/08/12 08:36:02;;;;;;;4.30;1.80;;;;;;;;;;5113253;27;20023;-78
2022/08/12 08:38:47;;;;;;;3.78;2.30;;;;;;;;;;5110211;28;20032;-77
2022/08/12 08:44:38;;;;;;;7.88;2.72;;;;;;;;;;5107149;28;20118;-78
2022/08/12 08:47:24;;;;;;;4.25;1.95;;;;;;;;;;5094253;27;20023;-79
2022/08/12 08:50:10;;;;;;;3.78;2.00;;;;;;;;;;5098409;28;20023;-78
2022/08/12 08:52:56;;;;;;;3.40;1.60;;;;;;;;;;5108749;27;20549;-78
2022/08/12 08:55:41;;;;;;;2.47;1.73;;;;;;;;;;5102879;28;20032;-80
2022/08/12 08:58:27;;;;;;;5.70;2.08;;;;;;;;;;5110940;27;20024;-81
2022/08/12 09:01:16;;;;;;;2.78;1.80;;;;;;;;;;5104122;28;20023;-73
2022/08/12 09:04:02;;;;;;;5.20;1.88;;;;;;;;;;5093963;28;20107;-81
2022/08/12 09:06:55;;;;;;;2.92;1.60;;;;;;;;;;5106491;27;20093;-78
2022/08/12 09:09:40;;;;;;;1.98;1.40;;;;;;;;;;5102257;28;20039;-80
2022/08/12 09:15:30;;;;;;;3.38;1.90;;;;;;;;;;5103815;28;20020;-78
2022/08/12 09:18:17;;;;;;;2.10;1.75;;;;;;;;;;5111227;27;20030;-79
2022/08/12 09:21:03;;;;;;;4.32;1.55;;;;;;;;;;5092099;28;20024;-76
2022/08/12 09:23:49;;;;;;;5.65;1.58;;;;;;;;;;5100111;28;20038;-72
2022/08/12 09:26:36;;;;;;;6.85;1.90;;;;;;;;;;5116196;27;20541;-75
2022/08/12 09:29:22;;;;;;;2.85;1.50;;;;;;;;;;5111491;27;20057;-72
2022/08/12 09:32:08;;;;;;;5.25;1.70;;;;;;;;;;5112839;27;20088;-73
2022/08/12 09:34:54;;;;;;;3.97;1.55;;;;;;;;;;5108806;27;20102;-72
2022/08/12 09:37:39;;;;;;;3.38;1.80;;;;;;;;;;5111155;27;20043;-78
2022/08/12 09:40:25;;;;;;;5.13;2.00;;;;;;;;;;5108663;27;20035;-76
2022/08/12 09:46:17;;;;;;;4.70;1.90;;;;;;;;;;5111777;27;20469;-75
2022/08/12 09:49:05;;;;;;;3.13;1.67;;;;;;;;;;5107312;27;20134;-75
2022/08/12 09:51:53;;;;;;;6.00;1.75;;;;;;;;;;5103707;28;20036;-77
2022/08/12 09:54:39;;;;;;;2.97;1.63;;;;;;;;;;5107739;27;20043;-75
2022/08/12 09:57:24;;;;;;;4.70;1.90;;;;;;;;;;5104657;28;20035;-77
2022/08/12 10:00:28;;;;;;;1.67;1.40;;;;;;;;;;5109872;28;20390;-77
2022/08/12 10:03:15;;;;;;;7.45;1.98;;;;;;;;;;5108538;28;20032;-77
2022/08/12 10:06:01;;;;;;;4.25;1.83;;;;;;;;;;5108331;28;20157;-81
2022/08/12 10:08:47;;;;;;;2.45;1.52;;;;;;;;;;5105298;27;20031;-66
2022/08/12 10:14:37;;;;;;;9.98;8.32;;;;;;;;;;5108494;27;20035;-68
2022/08/12 10:17:22;;;;;;;13.60;8.48;;;;;;;;;;5115350;27;20019;-66
2022/08/12 10:20:08;;;;;;;11.48;7.60;;;;;;;;;;5110220;27;20023;-63
2022/08/12 10:22:58;;;;;;;13.93;11.18;;;;;;;;;;5107734;27;20034;-63
2022/08/12 10:31:52;;;;;;;6.25;4.75;;;;;;;;;;5104829;28;20413;-64
2022/08/12 10:34:39;;;;;;;12.02;7.38;;;;;;;;;;5107543;28;20024;-62
2022/08/12 10:37:24;;;;;;;9.95;5.47;;;;;;;;;;5107535;28;20031;-69
2022/08/12 10:40:10;;;;;;;8.18;4.13;;;;;;;;;;5110048;28;20035;-74
2022/08/12 10:45:59;;;;;;;9.10;5.70;;;;;;;;;;5105155;28;20466;-71
2022/08/12 10:48:47;;;;;;;9.65;5.10;;;;;;;;;;5108150;28;20024;-71
2022/08/12 10:51:32;;;;;;;4.78;2.55;;;;;;;;;;5112824;28;20054;-71
2022/08/12 10:54:18;;;;;;;7.25;3.65;;;;;;;;;;5108119;28;20023;-69
2022/08/12 10:57:04;;;;;;;6.25;2.00;;;;;;;;;;5107398;28;20024;-67
2022/08/12 10:59:49;;;;;;;9.90;3.20;;;;;;;;;;5104547;28;20036;-65
2022/08/12 11:02:35;;;;;;;15.98;6.03;;;;;;;;;;5105713;28;20027;-69
2022/08/12 11:05:21;;;;;;;7.78;3.33;;;;;;;;;;5103214;28;20027;-66
2022/08/12 11:08:07;;;;;;;16.55;7.20;;;;;;;;;;5091011;28;20405;-66
2022/08/12 11:10:52;;;;;;;16.85;5.75;;;;;;;;;;5111409;28;20032;-66
2022/08/12 11:13:38;;;;;;;8.38;2.75;;;;;;;;;;5107016;28;20451;-65
2022/08/12 11:16:26;;;;;;;5.22;2.47;;;;;;;;;;5109853;28;20024;-65
2022/08/12 11:19:12;;;;;;;2.40;1.50;;;;;;;;;;5120244;28;20371;-65
2022/08/12 11:21:58;;;;;;;10.23;4.10;;;;;;;;;;5109136;28;20023;-65
2022/08/12 11:24:43;;;;;;;9.35;3.88;;;;;;;;;;5110456;28;20035;-65
2022/08/12 11:27:29;;;;;;;11.90;5.22;;;;;;;;;;5108902;28;20020;-66
2022/08/12 11:30:14;;;;;;;6.00;2.38;;;;;;;;;;5086343;28;20462;-63
2022/08/12 11:33:00;;;;;;;10.90;3.75;;;;;;;;;;5104149;28;20031;-66
2022/08/12 11:35:46;;;;;;;10.65;3.53;;;;;;;;;;5117721;28;20040;-64
2022/08/12 11:38:32;;;;;;;8.27;4.50;;;;;;;;;;5118808;27;20470;-65
2022/08/12 11:41:18;;;;;;;7.15;3.38;;;;;;;;;;5110914;27;20611;-63
2022/08/12 11:44:03;;;;;;;6.25;3.85;;;;;;;;;;5104076;28;20474;-63
2022/08/12 11:46:50;;;;;;;8.68;3.00;;;;;;;;;;5106375;28;20122;-68
2022/08/12 11:49:36;;;;;;;7.40;2.70;;;;;;;;;;5092101;27;20489;-65
2022/08/12 11:52:21;;;;;;;4.53;2.25;;;;;;;;;;5118049;27;20141;-65
2022/08/12 11:55:07;;;;;;;5.95;2.38;;;;;;;;;;5106747;28;20162;-66
2022/08/12 11:57:54;;;;;;;3.10;1.80;;;;;;;;;;5116448;27;20031;-65
2022/08/12 12:00:40;;;;;;;2.50;1.63;;;;;;;;;;5109064;28;20041;-64
2022/08/12 12:03:25;;;;;;;2.55;1.55;;;;;;;;;;5107847;28;20027;-67
2022/08/12 12:06:11;;;;;;;4.75;2.25;;;;;;;;;;5109497;27;20035;-65
2022/08/12 12:08:56;;;;;;;5.20;2.05;;;;;;;;;;5108446;27;20036;-64
2022/08/12 12:11:42;;;;;;;6.03;2.30;;;;;;;;;;5117720;27;20144;-66
2022/08/12 12:14:28;;;;;;;6.38;3.15;;;;;;;;;;5109984;27;20011;-63
2022/08/12 12:17:13;;;;;;;5.35;2.10;;;;;;;;;;5114418;27;20104;-66
2022/08/12 12:19:59;;;;;;;2.88;1.65;;;;;;;;;;5094295;28;20452;-66
2022/08/12 12:22:44;;;;;;;3.22;2.25;;;;;;;;;;5103448;28;20148;-78
2022/08/12 12:25:30;;;;;;;3.47;1.67;;;;;;;;;;5110951;28;20058;-64
2022/08/12 12:28:16;;;;;;;2.63;1.40;;;;;;;;;;5098076;27;21168;-68
2022/08/12 12:31:01;;;;;;;2.95;1.67;;;;;;;;;;5114681;27;20038;-68
2022/08/12 12:33:47;;;;;;;2.75;1.88;;;;;;;;;;5111182;28;20470;-68
2022/08/12 12:36:33;;;;;;;5.95;1.92;;;;;;;;;;5120251;27;20058;-64
2022/08/12 12:39:18;;;;;;;2.97;1.63;;;;;;;;;;5100827;27;20027;-65
2022/08/12 12:42:04;;;;;;;6.15;1.60;;;;;;;;;;5112071;27;20130;-67
2022/08/12 12:44:50;;;;;;;5.13;1.42;;;;;;;;;;5094539;28;20470;-70
2022/08/12 12:47:35;;;;;;;5.55;1.48;;;;;;;;;;5111272;28;20035;-71
2022/08/12 12:50:22;;;;;;;3.00;1.80;;;;;;;;;;5102651;28;20020;-68
2022/08/12 12:53:08;;;;;;;8.25;2.17;;;;;;;;;;5109132;27;20357;-64
2022/08/12 12:55:53;;;;;;;2.70;1.80;;;;;;;;;;5104058;27;20020;-66
2022/08/12 12:58:39;;;;;;;3.45;1.65;;;;;;;;;;5111583;27;20456;-66
2022/08/12 13:01:24;;;;;;;1.85;1.30;;;;;;;;;;5105885;28;20031;-71
2022/08/12 13:04:10;;;;;;;2.70;1.70;;;;;;;;;;5107601;27;20104;-63
2022/08/12 13:06:56;;;;;;;2.08;1.30;;;;;;;;;;5105330;27;20031;-64
2022/08/12 13:09:42;;;;;;;2.38;1.50;;;;;;;;;;5106031;27;20035;-62
2022/08/12 13:12:27;;;;;;;3.45;1.45;;;;;;;;;;5102728;27;20028;-61
2022/08/12 13:15:16;;;;;;;2.05;1.65;;;;;;;;;;5104997;27;20036;-60
2022/08/12 13:18:06;;;;;;;2.22;1.60;;;;;;;;;;5100717;27;20548;-64
2022/08/12 13:20:51;;;;;;;3.05;1.90;;;;;;;;;;5105477;27;20630;-61
2022/08/12 13:23:37;;;;;;;2.78;1.50;;;;;;;;;;5103839;28;20023;-61
2022/08/12 13:26:22;;;;;;;2.08;1.73;;;;;;;;;;5106400;28;20032;-60
2022/08/12 13:29:08;;;;;;;2.70;1.58;;;;;;;;;;5108507;28;20024;-61
2022/08/12 13:31:56;;;;;;;5.10;1.60;;;;;;;;;;5114172;27;20042;-64
2022/08/12 13:34:42;;;;;;;2.47;1.60;;;;;;;;;;5110637;28;21255;-66
2022/08/12 13:37:27;;;;;;;6.95;1.98;;;;;;;;;;5108016;28;20059;-64
2022/08/12 13:40:13;;;;;;;2.95;1.65;;;;;;;;;;5104530;28;20048;-69
2022/08/12 13:43:00;;;;;;;2.75;1.33;;;;;;;;;;5103787;28;20474;-69
2022/08/12 13:45:48;;;;;;;3.17;1.63;;;;;;;;;;5106871;28;20084;-73
2022/08/12 13:48:39;;;;;;;2.33;1.80;;;;;;;;;;5113495;27;20024;-75
2022/08/12 13:51:30;;;;;;;3.85;1.85;;;;;;;;;;5067894;27;20042;-76
2022/08/12 13:54:18;;;;;;;6.88;2.10;;;;;;;;;;5093356;28;20067;-73
2022/08/12 13:57:04;;;;;;;3.63;1.73;;;;;;;;;;5122030;27;20031;-80
2022/08/12 13:59:50;;;;;;;4.85;1.63;;;;;;;;;;5110690;28;20114;-76
2022/08/12 14:02:37;;;;;;;4.30;1.50;;;;;;;;;;5111569;28;20473;-77
2022/08/12 14:05:22;;;;;;;5.03;1.60;;;;;;;;;;5110194;28;20111;-78
2022/08/12 14:08:13;;;;;;;1.90;1.50;;;;;;;;;;5121485;27;20046;-79
2022/08/12 14:10:59;;;;;;;3.63;1.67;;;;;;;;;;5110555;28;20031;-78
2022/08/12 14:13:46;;;;;;;4.82;2.22;;;;;;;;;;5103013;28;20024;-80
2022/08/12 14:16:33;;;;;;;7.20;1.60;;;;;;;;;;5096717;28;20435;-80
2022/08/12 14:19:19;;;;;;;4.25;1.92;;;;;;;;;;5108394;28;20109;-81
2022/08/12 14:22:09;;;;;;;2.35;1.60;;;;;;;;;;5093941;28;20024;-80
2022/08/12 14:24:57;;;;;;;2.88;1.70;;;;;;;;;;5105902;28;20466;-80
2022/08/12 14:27:43;;;;;;;4.72;1.60;;;;;;;;;;5111126;28;20071;-79
2022/08/12 14:30:29;;;;;;;2.92;1.50;;;;;;;;;;5104188;28;20482;-79
2022/08/12 14:33:15;;;;;;;3.65;1.67;;;;;;;;;;5119977;27;20031;-74
2022/08/12 14:36:01;;;;;;;3.20;1.30;;;;;;;;;;5116970;27;20387;-79
2022/08/12 14:38:48;;;;;;;3.72;1.60;;;;;;;;;;5111164;28;20405;-77
2022/08/12 14:41:33;;;;;;;4.18;1.55;;;;;;;;;;5116857;28;20118;-78
2022/08/12 14:44:21;;;;;;;7.03;1.42;;;;;;;;;;5115400;28;20037;-77
2022/08/12 14:47:07;;;;;;;2.78;1.60;;;;;;;;;;5110992;28;20040;-77
2022/08/12 14:49:53;;;;;;;3.40;1.55;;;;;;;;;;5108975;28;20023;-75
2022/08/12 14:52:42;;;;;;;1.80;1.50;;;;;;;;;;5108543;28;20449;-74
2022/08/12 14:55:32;;;;;;;3.70;1.50;;;;;;;;;;5108306;28;20063;-76
2022/08/12 14:58:18;;;;;;;2.17;1.10;;;;;;;;;;5110486;28;20413;-75
2022/08/12 15:04:09;;;;;;;3.50;1.98;;;;;;;;;;5105047;28;20019;-75
2022/08/12 15:06:54;;;;;;;2.53;1.40;;;;;;;;;;5104613;28;20043;-75
2022/08/12 15:09:40;;;;;;;4.10;1.55;;;;;;;;;;5107369;28;20028;-77
2022/08/12 15:12:26;;;;;;;3.38;1.30;;;;;;;;;;5108023;28;20030;-76
2022/08/12 15:15:11;;;;;;;4.95;1.73;;;;;;;;;;5094380;28;20111;-77
2022/08/12 15:17:58;;;;;;;5.18;2.13;;;;;;;;;;5098456;28;20027;-75
2022/08/12 15:20:43;;;;;;;5.35;1.30;;;;;;;;;;5090527;28;20520;-76
2022/08/12 15:23:30;;;;;;;3.30;1.30;;;;;;;;;;5115826;27;20509;-77
2022/08/12 15:26:16;;;;;;;2.25;1.15;;;;;;;;;;5097126;28;20039;-77
2022/08/12 15:29:02;;;;;;;4.00;2.38;;;;;;;;;;5096399;28;20383;-74
2022/08/12 15:31:47;;;;;;;3.05;1.05;;;;;;;;;;5124954;27;20385;-76
2022/08/12 15:34:37;;;;;;;4.13;1.80;;;;;;;;;;5112865;27;20035;-77
2022/08/12 15:37:25;;;;;;;2.70;1.38;;;;;;;;;;5097365;28;20436;-77
2022/08/12 15:40:12;;;;;;;1.17;1.00;;;;;;;;;;5116050;28;20382;-78
2022/08/12 15:43:02;;;;;;;2.75;1.52;;;;;;;;;;5101811;27;20060;-77
2022/08/12 15:45:48;;;;;;;2.80;1.35;;;;;;;;;;5111032;28;20040;-75
2022/08/12 15:48:34;;;;;;;1.83;1.20;;;;;;;;;;5103367;28;20084;-75
2022/08/12 15:51:46;;;;;;;4.55;1.65;;;;;;;;;;5112179;28;20028;-75
2022/08/12 15:54:32;;;;;;;3.03;1.70;;;;;;;;;;5108094;28;20032;-75
2022/08/12 15:57:18;;;;;;;1.63;1.08;;;;;;;;;;5108570;28;20035;-75
2022/08/12 16:00:04;;;;;;;2.83;1.40;;;;;;;;;;5102858;28;20487;-76
2022/08/12 16:02:49;;;;;;;3.88;1.35;;;;;;;;;;5108148;28;20035;-75
2022/08/12 16:05:36;;;;;;;2.78;1.60;;;;;;;;;;5104042;28;20028;-76
2022/08/12 16:08:22;;;;;;;4.95;1.30;;;;;;;;;;5098057;28;20058;-77
2022/08/12 16:11:08;;;;;;;3.30;1.40;;;;;;;;;;5113289;28;20031;-77
2022/08/12 16:13:54;;;;;;;2.20;1.30;;;;;;;;;;5104207;28;20039;-78
2022/08/12 16:16:39;;;;;;;3.85;1.40;;;;;;;;;;5110072;27;20051;-76
2022/08/12 16:19:25;;;;;;;2.53;1.30;;;;;;;;;;5097588;28;20031;-77
2022/08/12 16:22:10;;;;;;;3.42;1.42;;;;;;;;;;5116685;27;20037;-75
2022/08/12 16:24:56;;;;;;;3.35;1.35;;;;;;;;;;5106010;28;20035;-74
2022/08/12 16:27:41;;;;;;;4.70;1.60;;;;;;;;;;5112050;28;20032;-74
2022/08/12 16:30:32;;;;;;;2.30;1.20;;;;;;;;;;5104490;27;20413;-75
2022/08/12 16:33:18;;;;;;;6.38;1.50;;;;;;;;;;5124085;27;20027;-75
2022/08/12 16:36:04;;;;;;;2.53;1.35;;;;;;;;;;5104996;28;20032;-75
2022/08/12 16:38:50;;;;;;;2.63;1.30;;;;;;;;;;5101544;27;20024;-74
2022/08/12 16:41:36;;;;;;;5.60;2.05;;;;;;;;;;5112883;27;20023;-76
2022/08/12 16:44:23;;;;;;;3.00;1.40;;;;;;;;;;5112779;27;20402;-75
2022/08/12 16:47:09;;;;;;;3.60;1.52;;;;;;;;;;5105848;28;20032;-75
2022/08/12 16:49:56;;;;;;;4.38;1.48;;;;;;;;;;5114012;28;20474;-75
2022/08/12 16:52:48;;;;;;;2.28;1.30;;;;;;;;;;5113055;28;20032;-74
2022/08/12 16:55:33;;;;;;;2.55;1.30;;;;;;;;;;5105305;28;20020;-74
2022/08/12 16:58:20;;;;;;;2.50;1.20;;;;;;;;;;5108854;28;20038;-75
2022/08/12 17:01:10;;;;;;;4.03;1.13;;;;;;;;;;5107391;28;20402;-74
2022/08/12 17:04:07;;;;;;;3.28;1.52;;;;;;;;;;5106063;28;20031;-75
2022/08/12 17:06:52;;;;;;;2.42;1.40;;;;;;;;;;5109411;28;20042;-75
2022/08/12 17:09:39;;;;;;;2.90;1.50;;;;;;;;;;5109867;28;20062;-74
2022/08/12 17:12:27;;;;;;;2.33;1.30;;;;;;;;;;5102366;28;20118;-75
2022/08/12 17:15:13;;;;;;;1.40;1.10;;;;;;;;;;5109739;28;20469;-76
2022/08/12 17:18:03;;;;;;;1.90;1.20;;;;;;;;;;5111504;28;20073;-76
2022/08/12 17:20:49;;;;;;;2.40;1.33;;;;;;;;;;5086033;28;20097;-77
2022/08/12 17:23:35;;;;;;;4.72;1.50;;;;;;;;;;5101664;28;20028;-76
2022/08/12 17:26:22;;;;;;;2.78;1.45;;;;;;;;;;5111018;28;20035;-76
2022/08/12 17:29:08;;;;;;;3.90;1.45;;;;;;;;;;5092206;28;20107;-75
2022/08/12 17:31:53;;;;;;;3.95;1.50;;;;;;;;;;5113321;27;20039;-74
2022/08/12 17:37:43;;;;;;;5.95;1.40;;;;;;;;;;5115811;27;20031;-72
2022/08/12 17:40:30;;;;;;;2.03;1.50;;;;;;;;;;5093129;28;20069;-78
2022/08/12 17:43:16;;;;;;;2.38;1.02;;;;;;;;;;5110858;28;20023;-80
2022/08/12 17:46:02;;;;;;;3.53;1.30;;;;;;;;;;5092988;28;20386;-78
2022/08/12 17:48:50;;;;;;;3.28;1.15;;;;;;;;;;5109508;28;20031;-78
2022/08/12 17:51:36;;;;;;;4.90;1.87;;;;;;;;;;5101186;28;20332;-78
2022/08/12 17:54:23;;;;;;;2.80;1.25;;;;;;;;;;5105661;28;20813;-75
2022/08/12 17:57:09;;;;;;;3.45;1.30;;;;;;;;;;5106731;28;20350;-76
2022/08/12 17:59:54;;;;;;;3.25;1.50;;;;;;;;;;5112343;28;20533;-77
2022/08/12 18:02:40;;;;;;;3.10;1.40;;;;;;;;;;5097502;28;20120;-77
2022/08/12 18:05:26;;;;;;;3.47;1.45;;;;;;;;;;5098297;28;20064;-78
2022/08/12 18:08:13;;;;;;;4.40;1.95;;;;;;;;;;5106884;28;20065;-77
2022/08/12 18:14:03;;;;;;;1.60;1.23;;;;;;;;;;5104840;28;20034;-76
2022/08/12 18:16:49;;;;;;;1.30;0.85;;;;;;;;;;5108168;28;20028;-75
2022/08/12 18:19:35;;;;;;;3.10;1.13;;;;;;;;;;5109877;28;20023;-76
2022/08/12 18:22:22;;;;;;;0.98;0.82;;;;;;;;;;5089807;28;20374;-75
2022/08/12 18:25:09;;;;;;;5.53;1.30;;;;;;;;;;5109162;28;20042;-75
2022/08/12 18:27:56;;;;;;;4.28;1.10;;;;;;;;;;5110388;28;20039;-75
2022/08/12 18:30:44;;;;;;;2.80;1.38;;;;;;;;;;5104713;27;20027;-79
2022/08/12 18:33:31;;;;;;;3.92;1.70;;;;;;;;;;5105863;28;20378;-75
2022/08/12 18:36:18;;;;;;;2.92;1.13;;;;;;;;;;5109656;28;20024;-74
2022/08/12 18:39:03;;;;;;;2.25;1.15;;;;;;;;;;5109694;28;20071;-74
2022/08/12 18:41:51;;;;;;;1.90;1.30;;;;;;;;;;5110437;28;20038;-75